Time;durP1;ratioP1;P1;durP2;ratioP2;P2;SDS_P1;SDS_P2;PMS_P1;PMS_P2;Temp;Humidity;BMP_temperature;BMP_pressure;BME280_temperature;BME280_humidity;BME280_pressure;Samples;Min_cycle;Max_cycle;Signal;HPM_P1;HPM_P2
2022/04/16 00:00:27;;;;;;;23.83;16.60;;;;;;;;;;5034640;28;20064;-82
2022/04/16 00:02:57;;;;;;;25.08;16.40;;;;;;;;;;5034865;28;20037;-82
2022/04/16 00:05:26;;;;;;;27.02;16.63;;;;;;;;;;5034718;28;20124;-82
2022/04/16 00:08:07;;;;;;;26.38;17.48;;;;;;;;;;5034431;28;20045;-82
2022/04/16 00:10:35;;;;;;;24.98;17.20;;;;;;;;;;5034713;28;20121;-82
2022/04/16 00:13:16;;;;;;;24.05;17.30;;;;;;;;;;5094528;22;20058;-79
2022/04/16 00:15:45;;;;;;;27.52;18.20;;;;;;;;;;5034466;28;20041;-80
2022/04/16 00:18:14;;;;;;;25.30;18.05;;;;;;;;;;5016657;28;20444;-78
2022/04/16 00:20:55;;;;;;;25.40;18.08;;;;;;;;;;5017134;28;20048;-78
2022/04/16 00:23:28;;;;;;;29.15;18.48;;;;;;;;;;5033892;28;20120;-80
2022/04/16 00:25:56;;;;;;;26.75;18.65;;;;;;;;;;5034236;28;20041;-80
2022/04/16 00:28:30;;;;;;;32.85;19.73;;;;;;;;;;5034113;28;20109;-80
2022/04/16 00:31:00;;;;;;;30.30;21.45;;;;;;;;;;5034211;28;20526;-80
2022/04/16 00:33:30;;;;;;;27.73;19.42;;;;;;;;;;5034039;28;20045;-80
2022/04/16 00:35:58;;;;;;;26.65;18.42;;;;;;;;;;5033997;28;20095;-80
2022/04/16 00:38:32;;;;;;;26.90;17.92;;;;;;;;;;5033975;28;20561;-80
2022/04/16 00:41:02;;;;;;;27.65;19.20;;;;;;;;;;5016123;28;20046;-81
2022/04/16 00:43:34;;;;;;;32.03;20.13;;;;;;;;;;5016162;28;20470;-81
2022/04/16 00:46:01;;;;;;;26.52;18.77;;;;;;;;;;5033729;28;20072;-81
2022/04/16 00:48:33;;;;;;;30.33;19.50;;;;;;;;;;5034035;28;20034;-81
2022/04/16 00:51:08;;;;;;;30.27;20.23;;;;;;;;;;5033735;28;20133;-81
2022/04/16 00:53:42;;;;;;;30.35;19.10;;;;;;;;;;5033894;28;20045;-81
2022/04/16 00:56:13;;;;;;;29.48;19.23;;;;;;;;;;5033776;28;20037;-81
2022/04/16 00:58:46;;;;;;;27.58;17.73;;;;;;;;;;5033663;28;20091;-81
2022/04/16 01:01:19;;;;;;;29.77;19.27;;;;;;;;;;5033636;28;20123;-81
2022/04/16 01:03:48;;;;;;;26.73;19.10;;;;;;;;;;5033579;28;20044;-81
2022/04/16 01:06:17;;;;;;;25.80;18.83;;;;;;;;;;5033493;28;20053;-81
2022/04/16 01:08:45;;;;;;;28.88;19.73;;;;;;;;;;5032774;28;20045;-81
2022/04/16 01:11:15;;;;;;;29.55;19.65;;;;;;;;;;5033705;28;20484;-81
2022/04/16 01:13:47;;;;;;;26.35;19.45;;;;;;;;;;5015284;28;20087;-81
2022/04/16 01:16:16;;;;;;;30.63;18.92;;;;;;;;;;5033160;28;20038;-81
2022/04/16 01:18:48;;;;;;;28.92;18.67;;;;;;;;;;5033458;28;20076;-81
2022/04/16 01:21:18;;;;;;;31.08;18.85;;;;;;;;;;5033534;28;20045;-81
2022/04/16 01:23:49;;;;;;;22.85;17.60;;;;;;;;;;5033399;28;20064;-81
2022/04/16 01:26:17;;;;;;;28.95;18.15;;;;;;;;;;5033439;28;20072;-81
2022/04/16 01:28:47;;;;;;;25.83;18.30;;;;;;;;;;5033030;28;20048;-81
2022/04/16 01:31:20;;;;;;;32.03;18.33;;;;;;;;;;5033200;28;20129;-81
2022/04/16 01:33:50;;;;;;;27.20;18.42;;;;;;;;;;5033131;28;20038;-81
2022/04/16 01:36:18;;;;;;;25.35;18.45;;;;;;;;;;5015190;28;20065;-81
2022/04/16 01:38:51;;;;;;;27.13;18.88;;;;;;;;;;5033300;28;20041;-81
2022/04/16 01:41:20;;;;;;;29.25;18.55;;;;;;;;;;5033162;28;20053;-81
2022/04/16 01:43:56;;;;;;;27.10;18.05;;;;;;;;;;5033518;28;20103;-80
2022/04/16 01:46:50;;;;;;;22.67;17.60;;;;;;;;;;5033455;28;20519;-81
2022/04/16 01:49:20;;;;;;;23.40;17.52;;;;;;;;;;5034662;28;20053;-80
2022/04/16 01:51:48;;;;;;;23.52;17.33;;;;;;;;;;5033454;28;20052;-81
2022/04/16 01:54:18;;;;;;;26.63;17.83;;;;;;;;;;5033537;28;20041;-81
2022/04/16 01:56:48;;;;;;;28.23;17.67;;;;;;;;;;5033619;28;20103;-81
2022/04/16 01:59:16;;;;;;;24.15;17.13;;;;;;;;;;5033226;28;20045;-81
2022/04/16 02:01:47;;;;;;;21.23;17.65;;;;;;;;;;5033247;28;20044;-81
2022/04/16 02:04:18;;;;;;;25.52;17.75;;;;;;;;;;5033376;28;20045;-81
2022/04/16 02:06:50;;;;;;;23.10;17.88;;;;;;;;;;5015177;28;20132;-81
2022/04/16 02:09:19;;;;;;;25.23;17.65;;;;;;;;;;5033135;28;20060;-80
2022/04/16 02:11:47;;;;;;;24.58;17.38;;;;;;;;;;5033351;28;20037;-80
2022/04/16 02:14:15;;;;;;;23.98;16.90;;;;;;;;;;5032730;28;20057;-80
2022/04/16 02:16:42;;;;;;;22.10;16.85;;;;;;;;;;5033443;28;20065;-80
2022/04/16 02:19:14;;;;;;;25.23;17.10;;;;;;;;;;5034020;28;20041;-81
2022/04/16 02:21:47;;;;;;;24.88;17.30;;;;;;;;;;5036735;28;20088;-80
2022/04/16 02:24:17;;;;;;;22.52;16.25;;;;;;;;;;5019258;28;20069;-80
2022/04/16 02:27:09;;;;;;;21.95;15.90;;;;;;;;;;5036625;28;20060;-81
2022/04/16 02:30:04;;;;;;;24.17;16.50;;;;;;;;;;5036747;28;20076;-81
2022/04/16 02:32:36;;;;;;;22.67;15.57;;;;;;;;;;5021419;28;20049;-81
2022/04/16 02:35:15;;;;;;;23.25;16.05;;;;;;;;;;5038891;28;20046;-81
2022/04/16 02:37:45;;;;;;;23.20;16.33;;;;;;;;;;5019829;28;20045;-81
2022/04/16 02:40:19;;;;;;;22.33;15.95;;;;;;;;;;5036259;28;20053;-82
2022/04/16 02:42:46;;;;;;;23.85;17.10;;;;;;;;;;5036910;28;20088;-81
2022/04/16 02:48:14;;;;;;;23.45;16.90;;;;;;;;;;5036214;28;20065;-82
2022/04/16 02:50:50;;;;;;;22.55;17.23;;;;;;;;;;5018650;28;20069;-81
2022/04/16 02:53:17;;;;;;;29.27;17.58;;;;;;;;;;5078647;22;20053;-81
2022/04/16 02:55:46;;;;;;;23.90;16.60;;;;;;;;;;5035979;28;20048;-82
2022/04/16 02:58:15;;;;;;;29.65;18.20;;;;;;;;;;5036316;28;20380;-82
2022/04/16 03:00:44;;;;;;;25.70;18.05;;;;;;;;;;5036015;28;20120;-82
2022/04/16 03:03:12;;;;;;;26.80;17.42;;;;;;;;;;5036049;28;20042;-82
2022/04/16 03:05:41;;;;;;;24.85;18.23;;;;;;;;;;5036013;28;20038;-82
2022/04/16 03:08:16;;;;;;;23.67;16.35;;;;;;;;;;5036238;28;20056;-82
2022/04/16 03:10:44;;;;;;;25.95;17.05;;;;;;;;;;5017937;28;20140;-82
2022/04/16 03:13:36;;;;;;;27.15;16.60;;;;;;;;;;5036743;28;20052;-82
2022/04/16 03:22:03;;;;;;;21.67;16.25;;;;;;;;;;5049271;28;20072;-82
2022/04/16 03:24:34;;;;;;;25.58;15.60;;;;;;;;;;5035569;28;20048;-82
2022/04/16 03:27:09;;;;;;;24.70;15.70;;;;;;;;;;5035729;28;20432;-81
2022/04/16 03:29:37;;;;;;;28.10;15.48;;;;;;;;;;5035565;28;20088;-82
2022/04/16 03:32:13;;;;;;;23.88;16.20;;;;;;;;;;5034791;28;20065;-82
2022/04/16 03:34:40;;;;;;;;;;;;;;;;;;5035392;28;20061;-81
2022/04/16 03:37:09;;;;;;;24.48;14.90;;;;;;;;;;5036011;28;20386;-81
2022/04/16 03:39:39;;;;;;;21.83;15.45;;;;;;;;;;5035474;28;20068;-83
2022/04/16 03:42:07;;;;;;;26.58;14.63;;;;;;;;;;5017609;28;20121;-82
2022/04/16 03:44:37;;;;;;;19.80;14.07;;;;;;;;;;5035304;28;20426;-81
2022/04/16 03:47:10;;;;;;;22.35;14.20;;;;;;;;;;5034875;28;20042;-80
2022/04/16 03:49:41;;;;;;;24.67;14.90;;;;;;;;;;5034234;28;20153;-76
2022/04/16 03:52:09;;;;;;;21.10;14.40;;;;;;;;;;5034588;28;20045;-77
2022/04/16 04:00:39;;;;;;;21.40;13.73;;;;;;;;;;5034113;28;20045;-74
2022/04/16 04:03:13;;;;;;;22.42;14.25;;;;;;;;;;5034293;28;20044;-73
2022/04/16 04:05:41;;;;;;;19.25;12.80;;;;;;;;;;5034453;28;20042;-74
2022/04/16 04:08:12;;;;;;;21.52;13.50;;;;;;;;;;5034424;28;20052;-73
2022/04/16 04:10:40;;;;;;;20.75;13.07;;;;;;;;;;5034175;28;20050;-73
2022/04/16 04:13:09;;;;;;;22.17;14.15;;;;;;;;;;5034197;28;20514;-74
2022/04/16 04:15:41;;;;;;;22.50;14.45;;;;;;;;;;5034486;28;20072;-74
2022/04/16 04:18:09;;;;;;;26.58;15.35;;;;;;;;;;5034121;28;20061;-73
2022/04/16 04:20:37;;;;;;;25.75;16.50;;;;;;;;;;5027211;28;20043;-74
2022/04/16 04:23:13;;;;;;;27.08;16.23;;;;;;;;;;5014391;28;20038;-74
2022/04/16 04:25:46;;;;;;;24.38;15.73;;;;;;;;;;5014164;28;20050;-75
2022/04/16 04:28:13;;;;;;;25.85;16.20;;;;;;;;;;5013881;28;20045;-74
2022/04/16 04:30:43;;;;;;;24.65;15.43;;;;;;;;;;5014143;28;20042;-72
2022/04/16 04:33:18;;;;;;;20.17;15.10;;;;;;;;;;5014518;28;20125;-74
2022/04/16 04:35:46;;;;;;;22.75;14.82;;;;;;;;;;5014184;28;20050;-72
2022/04/16 04:38:18;;;;;;;29.98;15.57;;;;;;;;;;5014100;28;20056;-73
2022/04/16 04:40:50;;;;;;;22.48;14.27;;;;;;;;;;5014193;28;20125;-72
2022/04/16 04:43:17;;;;;;;22.55;14.50;;;;;;;;;;5013133;28;20088;-75
2022/04/16 04:46:10;;;;;;;20.85;14.20;;;;;;;;;;5013997;28;20038;-75
2022/04/16 04:48:38;;;;;;;22.00;14.60;;;;;;;;;;5073180;22;20054;-77
2022/04/16 04:51:06;;;;;;;23.15;15.27;;;;;;;;;;5013758;28;20042;-77
2022/04/16 04:53:34;;;;;;;27.13;15.93;;;;;;;;;;5014066;28;20480;-77
2022/04/16 04:56:02;;;;;;;23.40;15.15;;;;;;;;;;5014062;28;20076;-82
2022/04/16 04:58:31;;;;;;;20.58;14.18;;;;;;;;;;5012613;28;20065;-76
2022/04/16 05:01:00;;;;;;;20.08;13.68;;;;;;;;;;5013698;28;20038;-82
2022/04/16 05:03:34;;;;;;;23.25;14.18;;;;;;;;;;5014188;28;20100;-75
2022/04/16 05:06:06;;;;;;;18.10;13.45;;;;;;;;;;5014005;28;20048;-79
2022/04/16 05:08:33;;;;;;;21.42;14.23;;;;;;;;;;5013790;28;20488;-79
2022/04/16 05:14:43;;;;;;;17.20;11.05;;;;;;;;;;5008733;28;20147;-81
2022/04/16 05:17:36;;;;;;;15.93;10.85;;;;;;;;;;5015473;28;20107;-81
2022/04/16 05:20:06;;;;;;;14.90;10.48;;;;;;;;;;4994472;28;20038;-80
2022/04/16 05:22:34;;;;;;;12.93;10.25;;;;;;;;;;5011798;28;20058;-81
2022/04/16 05:25:03;;;;;;;14.07;10.55;;;;;;;;;;5012970;28;20038;-81
2022/04/16 05:27:34;;;;;;;12.90;9.90;;;;;;;;;;4996079;28;20042;-80
2022/04/16 05:30:11;;;;;;;13.20;9.40;;;;;;;;;;4995793;28;20378;-79
2022/04/16 05:32:40;;;;;;;15.77;9.27;;;;;;;;;;5013897;28;20518;-80
2022/04/16 05:35:11;;;;;;;9.60;8.15;;;;;;;;;;5013885;28;20052;-81
2022/04/16 05:37:40;;;;;;;13.18;8.30;;;;;;;;;;5013534;28;20465;-79
2022/04/16 05:40:14;;;;;;;14.48;9.38;;;;;;;;;;4996347;28;20050;-79
2022/04/16 05:42:42;;;;;;;11.88;9.13;;;;;;;;;;5013438;28;20045;-80
2022/04/16 05:45:14;;;;;;;14.75;8.82;;;;;;;;;;5013331;28;20042;-80
2022/04/16 05:47:49;;;;;;;11.45;8.70;;;;;;;;;;5013672;28;20120;-81
2022/04/16 05:50:18;;;;;;;12.98;8.60;;;;;;;;;;5013251;28;20085;-79
2022/04/16 05:52:52;;;;;;;10.98;8.88;;;;;;;;;;5013314;28;20481;-80
2022/04/16 05:55:28;;;;;;;15.07;8.65;;;;;;;;;;5015920;28;20034;-80
2022/04/16 05:57:57;;;;;;;10.68;8.38;;;;;;;;;;5017343;28;20100;-79
2022/04/16 06:00:35;;;;;;;14.05;8.73;;;;;;;;;;4999285;28;20049;-75
2022/04/16 06:03:04;;;;;;;12.38;9.00;;;;;;;;;;5018605;28;20042;-76
2022/04/16 06:05:39;;;;;;;11.20;8.30;;;;;;;;;;5022978;28;20048;-76
2022/04/16 06:08:06;;;;;;;11.90;8.30;;;;;;;;;;5018049;28;20050;-76
2022/04/16 06:10:37;;;;;;;14.02;8.95;;;;;;;;;;5016842;28;20042;-75
2022/04/16 06:13:14;;;;;;;14.00;9.07;;;;;;;;;;5017094;28;20400;-77
2022/04/16 06:15:44;;;;;;;12.02;8.38;;;;;;;;;;5017410;28;20120;-78
2022/04/16 06:18:12;;;;;;;17.17;10.00;;;;;;;;;;4999324;28;20042;-78
2022/04/16 06:20:48;;;;;;;11.95;8.23;;;;;;;;;;5017079;28;20092;-78
2022/04/16 06:23:16;;;;;;;13.43;7.90;;;;;;;;;;5017163;28;20381;-78
2022/04/16 06:25:45;;;;;;;10.90;8.18;;;;;;;;;;5016959;28;20400;-79
2022/04/16 06:28:17;;;;;;;10.27;7.68;;;;;;;;;;5016963;28;20453;-79
2022/04/16 06:30:46;;;;;;;11.98;8.52;;;;;;;;;;4999202;28;20089;-79
2022/04/16 06:33:14;;;;;;;12.00;8.30;;;;;;;;;;5016678;28;20041;-76
2022/04/16 06:35:47;;;;;;;11.20;7.82;;;;;;;;;;5016659;28;20145;-75
2022/04/16 06:38:14;;;;;;;11.63;8.15;;;;;;;;;;5016524;28;20065;-73
2022/04/16 06:40:44;;;;;;;10.40;7.97;;;;;;;;;;5016363;28;20046;-74
2022/04/16 06:43:16;;;;;;;10.60;9.02;;;;;;;;;;5016595;28;20052;-75
2022/04/16 06:45:44;;;;;;;11.55;8.27;;;;;;;;;;5016265;28;20558;-76
2022/04/16 06:48:12;;;;;;;11.13;8.65;;;;;;;;;;5016022;28;20033;-76
2022/04/16 06:50:45;;;;;;;13.13;8.48;;;;;;;;;;5016445;28;20081;-76
2022/04/16 06:53:13;;;;;;;16.08;9.68;;;;;;;;;;5016159;28;20064;-76
2022/04/16 06:55:43;;;;;;;12.15;9.52;;;;;;;;;;5016085;28;20046;-77
2022/04/16 06:58:15;;;;;;;16.23;11.63;;;;;;;;;;5016212;28;20117;-77
2022/04/16 07:00:44;;;;;;;15.05;10.05;;;;;;;;;;5015904;28;20125;-81
2022/04/16 07:03:37;;;;;;;11.55;9.25;;;;;;;;;;4997831;28;20049;-77
2022/04/16 07:06:10;;;;;;;14.38;9.75;;;;;;;;;;5014720;28;20583;-77
2022/04/16 07:08:37;;;;;;;13.80;9.70;;;;;;;;;;5015935;28;20057;-76
2022/04/16 07:11:09;;;;;;;12.68;8.95;;;;;;;;;;5015116;28;20045;-78
2022/04/16 07:13:43;;;;;;;13.98;9.48;;;;;;;;;;4996369;28;20263;-78
2022/04/16 07:16:11;;;;;;;15.73;9.95;;;;;;;;;;4996312;28;20046;-79
2022/04/16 07:19:04;;;;;;;11.85;10.10;;;;;;;;;;4996157;28;20118;-79
2022/04/16 07:22:02;;;;;;;16.63;10.45;;;;;;;;;;4996237;28;20046;-79
2022/04/16 07:24:54;;;;;;;13.00;10.40;;;;;;;;;;4995999;28;20084;-77
2022/04/16 07:27:24;;;;;;;13.07;9.90;;;;;;;;;;4996137;28;20121;-76
2022/04/16 07:29:58;;;;;;;17.23;11.20;;;;;;;;;;4995824;28;20428;-76
2022/04/16 07:32:28;;;;;;;11.65;10.40;;;;;;;;;;4996303;28;20117;-77
2022/04/16 07:35:20;;;;;;;11.93;9.93;;;;;;;;;;4995472;28;20047;-74
2022/04/16 07:37:57;;;;;;;13.90;9.85;;;;;;;;;;4995891;28;20058;-72
2022/04/16 07:40:25;;;;;;;13.10;9.60;;;;;;;;;;4995957;28;20121;-74
2022/04/16 07:42:59;;;;;;;14.80;10.25;;;;;;;;;;4978753;28;20093;-74
2022/04/16 07:45:26;;;;;;;14.18;10.15;;;;;;;;;;4995281;28;20073;-74
2022/04/16 07:47:54;;;;;;;10.93;9.52;;;;;;;;;;5012197;28;20062;-74
2022/04/16 07:50:28;;;;;;;12.15;10.15;;;;;;;;;;4995379;28;20054;-71
2022/04/16 07:53:20;;;;;;;16.02;10.27;;;;;;;;;;4995488;28;20066;-73
2022/04/16 07:55:54;;;;;;;16.58;10.45;;;;;;;;;;4995397;28;20084;-73
2022/04/16 07:58:21;;;;;;;13.67;9.83;;;;;;;;;;4995376;28;20228;-73
2022/04/16 08:00:50;;;;;;;14.88;12.07;;;;;;;;;;4995148;28;20039;-73
2022/04/16 08:03:18;;;;;;;16.42;12.93;;;;;;;;;;4999787;28;20038;-73
2022/04/16 08:06:15;;;;;;;14.93;11.45;;;;;;;;;;5077632;22;20129;-72
2022/04/16 08:09:08;;;;;;;13.13;10.02;;;;;;;;;;4985160;28;20059;-72
2022/04/16 08:11:36;;;;;;;18.33;9.68;;;;;;;;;;4975409;28;20093;-72
2022/04/16 08:14:04;;;;;;;13.23;9.85;;;;;;;;;;4984758;28;20038;-72
2022/04/16 08:16:32;;;;;;;14.40;11.13;;;;;;;;;;4985089;28;20056;-72
2022/04/16 08:19:00;;;;;;;14.98;9.40;;;;;;;;;;4994971;28;20104;-72
2022/04/16 08:21:28;;;;;;;21.25;10.88;;;;;;;;;;4994721;28;20049;-72
2022/04/16 08:24:03;;;;;;;14.77;10.15;;;;;;;;;;4995465;28;20069;-73
2022/04/16 08:26:31;;;;;;;14.80;10.15;;;;;;;;;;4978004;28;20051;-72
2022/04/16 08:28:59;;;;;;;16.58;12.25;;;;;;;;;;4991574;28;20034;-72
2022/04/16 08:31:27;;;;;;;17.65;11.63;;;;;;;;;;4994479;28;20085;-72
2022/04/16 08:33:55;;;;;;;17.45;10.23;;;;;;;;;;4994575;28;20042;-72
2022/04/16 08:36:22;;;;;;;15.70;10.00;;;;;;;;;;4994296;28;20062;-83
2022/04/16 08:38:50;;;;;;;15.75;10.07;;;;;;;;;;4995009;28;20042;-75
2022/04/16 08:41:17;;;;;;;14.50;10.43;;;;;;;;;;4982184;28;20085;-75
2022/04/16 08:43:45;;;;;;;17.20;9.95;;;;;;;;;;4974937;28;20042;-75
2022/04/16 08:46:16;;;;;;;17.25;10.48;;;;;;;;;;4974747;28;20047;-75
2022/04/16 08:48:44;;;;;;;14.80;10.15;;;;;;;;;;4974700;28;20039;-75
2022/04/16 08:51:12;;;;;;;15.05;9.80;;;;;;;;;;4977877;28;20077;-75
2022/04/16 08:53:40;;;;;;;20.90;10.48;;;;;;;;;;4978119;28;20074;-75
2022/04/16 08:56:07;;;;;;;18.17;10.75;;;;;;;;;;4974456;28;20493;-75
2022/04/16 08:58:35;;;;;;;15.25;10.65;;;;;;;;;;4974830;28;20043;-74
2022/04/16 09:01:07;;;;;;;14.95;10.40;;;;;;;;;;4976783;28;20105;-75
2022/04/16 09:03:35;;;;;;;16.65;9.90;;;;;;;;;;4978960;28;20404;-74
2022/04/16 09:06:04;;;;;;;14.18;9.75;;;;;;;;;;4993895;28;20042;-74
2022/04/16 09:08:32;;;;;;;14.57;9.95;;;;;;;;;;4993885;28;20100;-74
2022/04/16 09:11:06;;;;;;;16.83;10.32;;;;;;;;;;4994114;28;20482;-74
2022/04/16 09:13:34;;;;;;;15.77;10.23;;;;;;;;;;4994108;28;20046;-74
2022/04/16 09:16:10;;;;;;;15.85;9.48;;;;;;;;;;4994196;28;20443;-75
2022/04/16 09:18:45;;;;;;;16.35;10.30;;;;;;;;;;4993585;28;20050;-75
2022/04/16 09:21:15;;;;;;;15.65;10.13;;;;;;;;;;4993858;28;20042;-74
2022/04/16 09:23:47;;;;;;;14.18;9.85;;;;;;;;;;4989486;28;20038;-74
2022/04/16 09:26:27;;;;;;;15.63;10.13;;;;;;;;;;4976293;28;20478;-74
2022/04/16 09:28:55;;;;;;;18.38;10.27;;;;;;;;;;4993101;28;20122;-74
2022/04/16 09:31:29;;;;;;;14.23;9.23;;;;;;;;;;4993840;28;20034;-75
2022/04/16 09:33:57;;;;;;;11.93;8.15;;;;;;;;;;4993762;28;20042;-73
2022/04/16 09:36:25;;;;;;;10.85;8.40;;;;;;;;;;4993783;28;20401;-73
2022/04/16 09:39:05;;;;;;;13.38;8.93;;;;;;;;;;4978258;28;20519;-73
2022/04/16 09:41:38;;;;;;;13.32;9.15;;;;;;;;;;4958245;28;20058;-72
2022/04/16 09:44:20;;;;;;;15.43;9.50;;;;;;;;;;4974346;28;20050;-72
2022/04/16 09:46:52;;;;;;;12.43;8.15;;;;;;;;;;4974360;28;20046;-73
2022/04/16 09:49:20;;;;;;;11.90;7.90;;;;;;;;;;4974311;28;20046;-73
2022/04/16 09:51:48;;;;;;;12.27;7.78;;;;;;;;;;4974394;28;20047;-72
2022/04/16 09:54:16;;;;;;;12.32;7.82;;;;;;;;;;4974549;28;20425;-73
2022/04/16 09:56:46;;;;;;;16.60;8.18;;;;;;;;;;4957437;28;20066;-73
2022/04/16 09:59:15;;;;;;;13.75;7.63;;;;;;;;;;4974316;28;20090;-73
2022/04/16 10:01:47;;;;;;;14.50;9.07;;;;;;;;;;4957077;28;20047;-72
2022/04/16 10:04:18;;;;;;;17.73;10.07;;;;;;;;;;4973919;28;20050;-73
2022/04/16 10:06:46;;;;;;;12.43;9.50;;;;;;;;;;4973830;28;20054;-74
2022/04/16 10:09:17;;;;;;;15.30;8.35;;;;;;;;;;4973842;28;20062;-72
2022/04/16 10:14:47;;;;;;;15.75;9.30;;;;;;;;;;4975049;28;20055;-73
2022/04/16 10:17:16;;;;;;;10.13;7.97;;;;;;;;;;4974175;28;20074;-73
2022/04/16 10:19:47;;;;;;;15.90;8.32;;;;;;;;;;4974070;28;20051;-73
2022/04/16 10:22:28;;;;;;;12.15;8.38;;;;;;;;;;4974140;28;20078;-73
2022/04/16 10:24:59;;;;;;;15.65;9.30;;;;;;;;;;4973708;28;20074;-72
2022/04/16 10:27:31;;;;;;;13.13;7.55;;;;;;;;;;4973794;28;20043;-72
2022/04/16 10:30:00;;;;;;;13.98;8.05;;;;;;;;;;4973981;28;20047;-73
2022/04/16 10:32:38;;;;;;;11.02;7.97;;;;;;;;;;4974050;28;20035;-72
2022/04/16 10:35:07;;;;;;;14.68;8.73;;;;;;;;;;4973616;28;20058;-72
2022/04/16 10:37:41;;;;;;;18.85;8.45;;;;;;;;;;4973961;28;20043;-74
2022/04/16 10:40:16;;;;;;;14.38;8.30;;;;;;;;;;4973766;28;20054;-71
2022/04/16 10:42:51;;;;;;;13.18;8.07;;;;;;;;;;4976611;28;20073;-73
2022/04/16 10:45:21;;;;;;;11.95;8.40;;;;;;;;;;4977727;28;20039;-73
2022/04/16 10:47:50;;;;;;;11.25;7.80;;;;;;;;;;4977517;28;20069;-73
2022/04/16 10:50:19;;;;;;;11.07;8.20;;;;;;;;;;4977411;28;20517;-74
2022/04/16 10:53:01;;;;;;;13.13;8.63;;;;;;;;;;4977073;28;20066;-72
2022/04/16 10:55:30;;;;;;;13.68;8.82;;;;;;;;;;4982141;28;20523;-73
2022/04/16 10:58:03;;;;;;;13.32;8.10;;;;;;;;;;4993923;28;20042;-72
2022/04/16 11:00:41;;;;;;;11.07;7.53;;;;;;;;;;4996359;28;20039;-72
2022/04/16 11:03:09;;;;;;;27.25;17.40;;;;;;;;;;4996143;28;20125;-73
2022/04/16 11:05:36;;;;;;;12.48;8.75;;;;;;;;;;4996527;28;20046;-73
2022/04/16 11:08:07;;;;;;;10.70;7.60;;;;;;;;;;4996004;28;20137;-72
2022/04/16 11:10:35;;;;;;;14.13;7.22;;;;;;;;;;4995981;28;20034;-72
2022/04/16 11:13:02;;;;;;;9.57;6.93;;;;;;;;;;4995894;28;20069;-72
2022/04/16 11:15:30;;;;;;;11.38;7.25;;;;;;;;;;4996008;28;20049;-72
2022/04/16 11:17:59;;;;;;;32.88;8.73;;;;;;;;;;4996176;28;20049;-73
2022/04/16 11:20:27;;;;;;;14.65;7.55;;;;;;;;;;4995850;28;20042;-73
2022/04/16 11:22:55;;;;;;;16.10;8.32;;;;;;;;;;4986379;28;20043;-73
2022/04/16 11:34:14;;;;;;;23.17;17.40;;;;;;;;;;4976575;28;20050;-73
2022/04/16 11:36:32;;;;;;;11.93;6.82;;;;;;;;;;4976255;28;20105;-73
2022/04/16 11:39:00;;;;;;;11.32;6.70;;;;;;;;;;4976201;28;20043;-73
2022/04/16 11:41:28;;;;;;;14.05;7.13;;;;;;;;;;4976059;28;20494;-74
2022/04/16 11:43:58;;;;;;;12.73;6.40;;;;;;;;;;4975965;28;20051;-73
2022/04/16 11:46:26;;;;;;;11.02;6.22;;;;;;;;;;4976103;28;20049;-73
2022/04/16 11:48:58;;;;;;;12.32;5.65;;;;;;;;;;4976390;28;20043;-73
2022/04/16 11:51:26;;;;;;;12.88;6.00;;;;;;;;;;4975528;28;20126;-74
2022/04/16 11:53:53;;;;;;;13.70;5.50;;;;;;;;;;4989401;28;20053;-75
2022/04/16 11:56:23;;;;;;;9.85;4.88;;;;;;;;;;4982347;28;20050;-73
2022/04/16 11:58:52;;;;;;;11.10;4.78;;;;;;;;;;4975662;28;20101;-73
2022/04/16 12:01:23;;;;;;;9.43;4.85;;;;;;;;;;4975744;28;20413;-73
2022/04/16 12:03:56;;;;;;;10.30;4.65;;;;;;;;;;4975833;28;20086;-73
2022/04/16 12:06:24;;;;;;;11.43;6.03;;;;;;;;;;4989564;28;20042;-73
2022/04/16 12:08:54;;;;;;;12.05;6.28;;;;;;;;;;4989772;28;20068;-73
2022/04/16 12:11:22;;;;;;;12.98;8.27;;;;;;;;;;4994491;28;20043;-73
2022/04/16 12:13:54;;;;;;;8.38;5.35;;;;;;;;;;4995462;28;20396;-73
2022/04/16 12:16:21;;;;;;;12.50;4.55;;;;;;;;;;4995061;28;20081;-73
2022/04/16 12:18:49;;;;;;;8.60;4.68;;;;;;;;;;4995281;28;20035;-73
2022/04/16 12:21:20;;;;;;;12.18;5.15;;;;;;;;;;4994832;28;20046;-73
2022/04/16 12:23:48;;;;;;;8.60;4.93;;;;;;;;;;4996099;28;20417;-74
2022/04/16 12:26:17;;;;;;;11.10;5.20;;;;;;;;;;4994622;28;20043;-73
2022/04/16 12:28:51;;;;;;;9.25;4.82;;;;;;;;;;4976215;28;20502;-73
2022/04/16 12:31:26;;;;;;;8.60;4.60;;;;;;;;;;4975127;28;20059;-73
2022/04/16 12:33:53;;;;;;;9.30;5.30;;;;;;;;;;4980512;28;20126;-73
2022/04/16 12:36:21;;;;;;;8.43;4.78;;;;;;;;;;4975250;28;20043;-73
2022/04/16 12:38:48;;;;;;;11.48;5.57;;;;;;;;;;4975510;28;20495;-73
2022/04/16 12:41:20;;;;;;;9.18;5.53;;;;;;;;;;4974755;28;20050;-73
2022/04/16 12:43:48;;;;;;;10.65;5.90;;;;;;;;;;4975003;28;20138;-74
2022/04/16 12:46:15;;;;;;;14.65;6.30;;;;;;;;;;4975460;28;20524;-73
2022/04/16 12:48:43;;;;;;;11.57;6.68;;;;;;;;;;4975100;28;20055;-73
2022/04/16 12:51:11;;;;;;;12.23;7.00;;;;;;;;;;4975728;28;20162;-73
2022/04/16 12:53:38;;;;;;;12.52;6.55;;;;;;;;;;4980065;28;20070;-74
2022/04/16 12:56:06;;;;;;;11.43;7.15;;;;;;;;;;5013911;28;20042;-72
2022/04/16 12:58:34;;;;;;;11.43;6.78;;;;;;;;;;5013653;28;20054;-73
2022/04/16 13:01:01;;;;;;;10.88;6.90;;;;;;;;;;5014003;28;20045;-73
2022/04/16 13:03:29;;;;;;;10.07;6.28;;;;;;;;;;5013307;28;20101;-72
2022/04/16 13:05:57;;;;;;;9.10;5.20;;;;;;;;;;5013622;28;20441;-73
2022/04/16 13:08:25;;;;;;;10.02;5.65;;;;;;;;;;5013481;28;20112;-72
2022/04/16 13:10:53;;;;;;;10.23;4.90;;;;;;;;;;5013869;28;20050;-72
2022/04/16 13:13:20;;;;;;;7.60;4.88;;;;;;;;;;4996821;28;20069;-73
2022/04/16 13:15:48;;;;;;;9.82;5.35;;;;;;;;;;4994098;28;20042;-73
2022/04/16 13:18:16;;;;;;;7.70;4.68;;;;;;;;;;4993709;28;20050;-72
2022/04/16 13:20:44;;;;;;;10.38;5.60;;;;;;;;;;4993981;28;20488;-72
2022/04/16 13:23:11;;;;;;;11.70;5.78;;;;;;;;;;4993987;28;20038;-72
2022/04/16 13:25:39;;;;;;;11.68;5.43;;;;;;;;;;4993596;28;20493;-72
2022/04/16 13:28:07;;;;;;;12.32;5.95;;;;;;;;;;4993992;28;20378;-72
2022/04/16 13:30:34;;;;;;;14.38;6.80;;;;;;;;;;4993909;28;20425;-72
2022/04/16 13:33:02;;;;;;;38.40;26.77;;;;;;;;;;4993802;28;20121;-72
2022/04/16 13:35:30;;;;;;;10.10;7.00;;;;;;;;;;4993985;28;20050;-72
2022/04/16 13:37:57;;;;;;;8.65;5.22;;;;;;;;;;4993452;28;20038;-72
2022/04/16 13:43:11;;;;;;;9.50;5.70;;;;;;;;;;4994273;28;20061;-72
2022/04/16 13:45:38;;;;;;;8.25;5.55;;;;;;;;;;4993422;28;20492;-72
2022/04/16 13:48:06;;;;;;;8.40;5.10;;;;;;;;;;4993561;28;20053;-72
2022/04/16 13:50:35;;;;;;;13.35;5.43;;;;;;;;;;4993488;28;20054;-72
2022/04/16 13:53:02;;;;;;;12.88;6.15;;;;;;;;;;4993475;28;20066;-72
2022/04/16 13:55:30;;;;;;;10.60;6.00;;;;;;;;;;4990505;28;20530;-73
2022/04/16 13:57:57;;;;;;;9.05;6.10;;;;;;;;;;4996054;28;20050;-72
2022/04/16 14:00:25;;;;;;;12.98;6.70;;;;;;;;;;4993447;28;20156;-72
2022/04/16 14:02:53;;;;;;;12.85;6.65;;;;;;;;;;4993633;28;20408;-72
2022/04/16 14:08:07;;;;;;;9.27;5.20;;;;;;;;;;4993089;28;20054;-72
2022/04/16 14:10:34;;;;;;;8.43;5.05;;;;;;;;;;4993188;28;20050;-72
2022/04/16 14:13:02;;;;;;;8.35;4.65;;;;;;;;;;4993155;28;20050;-72
2022/04/16 14:15:30;;;;;;;6.55;4.45;;;;;;;;;;4994930;28;20046;-72
2022/04/16 14:17:57;;;;;;;7.53;4.20;;;;;;;;;;4997215;28;20133;-72
2022/04/16 14:20:25;;;;;;;7.78;4.50;;;;;;;;;;4997333;28;20046;-72
2022/04/16 14:22:52;;;;;;;9.98;5.22;;;;;;;;;;4996965;28;20042;-72
2022/04/16 14:25:20;;;;;;;8.63;4.50;;;;;;;;;;4996928;28;20057;-72
2022/04/16 14:27:48;;;;;;;11.27;5.55;;;;;;;;;;4997179;28;20062;-72
2022/04/16 14:30:15;;;;;;;14.65;8.10;;;;;;;;;;4996871;28;20100;-72
2022/04/16 14:32:43;;;;;;;10.82;4.90;;;;;;;;;;4987716;28;20037;-72
2022/04/16 14:35:11;;;;;;;7.93;4.75;;;;;;;;;;4995047;28;20038;-72
2022/04/16 14:37:39;;;;;;;8.25;4.70;;;;;;;;;;4988238;28;20053;-72
2022/04/16 14:40:07;;;;;;;11.32;4.20;;;;;;;;;;4977251;28;20455;-72
2022/04/16 14:42:35;;;;;;;7.57;4.30;;;;;;;;;;4977028;28;20081;-72
2022/04/16 14:45:02;;;;;;;7.63;4.05;;;;;;;;;;4977136;28;20058;-72
2022/04/16 14:47:31;;;;;;;11.88;4.60;;;;;;;;;;4976962;28;20454;-72
2022/04/16 14:50:01;;;;;;;9.98;5.18;;;;;;;;;;4977156;28;20054;-72
2022/04/16 14:52:29;;;;;;;5.82;3.78;;;;;;;;;;4977053;28;20043;-72
2022/04/16 14:54:57;;;;;;;7.13;4.20;;;;;;;;;;4980917;28;20046;-73
2022/04/16 14:57:37;;;;;;;14.50;4.70;;;;;;;;;;4996291;28;20133;-72
2022/04/16 15:00:04;;;;;;;7.72;4.43;;;;;;;;;;4995930;28;20489;-72
2022/04/16 15:02:32;;;;;;;7.15;3.80;;;;;;;;;;4996455;28;20046;-72
2022/04/16 15:05:00;;;;;;;6.60;4.13;;;;;;;;;;4995980;28;20047;-72
2022/04/16 15:07:28;;;;;;;8.00;3.55;;;;;;;;;;4995637;28;20046;-72
2022/04/16 15:09:55;;;;;;;5.60;4.15;;;;;;;;;;4995963;28;20390;-72
2022/04/16 15:12:24;;;;;;;8.95;4.30;;;;;;;;;;4996182;28;20133;-72
2022/04/16 15:14:52;;;;;;;7.35;3.60;;;;;;;;;;4996281;28;20081;-72
2022/04/16 15:17:26;;;;;;;11.90;7.53;;;;;;;;;;4993304;28;20043;-72
2022/04/16 15:19:54;;;;;;;6.10;4.63;;;;;;;;;;4995893;28;20126;-72
2022/04/16 15:22:21;;;;;;;11.15;4.50;;;;;;;;;;4996133;28;20133;-72